Time;durP1;ratioP1;P1;durP2;ratioP2;P2;SDS_P1;SDS_P2;PMS_P1;PMS_P2;Temp;Humidity;BMP_temperature;BMP_pressure;BME280_temperature;BME280_humidity;BME280_pressure;Samples;Min_cycle;Max_cycle;Signal;HPM_P1;HPM_P2
2023/10/27 00:01:38;;;;;;;2.58;0.80;;;;;;;;;;4941974;29;20231;-82
2023/10/27 00:04:08;;;;;;;1.77;0.85;;;;;;;;;;4938018;29;20290;-84
2023/10/27 00:06:38;;;;;;;1.77;1.00;;;;;;;;;;4937666;29;20217;-85
2023/10/27 00:09:06;;;;;;;4.43;1.30;;;;;;;;;;4937565;29;20285;-85
2023/10/27 00:11:36;;;;;;;2.92;1.40;;;;;;;;;;4936663;29;20207;-85
2023/10/27 00:14:07;;;;;;;2.17;0.95;;;;;;;;;;4942000;29;20241;-85
2023/10/27 00:16:36;;;;;;;1.70;1.15;;;;;;;;;;4948400;29;20289;-85
2023/10/27 00:19:04;;;;;;;0.73;0.73;;;;;;;;;;4947892;29;20260;-85
2023/10/27 00:21:36;;;;;;;4.00;1.02;;;;;;;;;;4948089;29;20210;-86
2023/10/27 00:24:06;;;;;;;0.90;0.80;;;;;;;;;;4949003;29;20209;-86
2023/10/27 00:26:38;;;;;;;5.07;1.10;;;;;;;;;;4948948;29;20208;-85
2023/10/27 00:29:05;;;;;;;3.97;0.90;;;;;;;;;;4947858;29;20227;-86
2023/10/27 00:31:33;;;;;;;2.83;0.80;;;;;;;;;;4947753;29;20266;-84
2023/10/27 00:34:01;;;;;;;1.77;1.02;;;;;;;;;;4956018;28;20191;-86
2023/10/27 00:36:30;;;;;;;0.90;0.90;;;;;;;;;;4958651;28;20233;-86
2023/10/27 00:38:56;;;;;;;1.67;1.33;;;;;;;;;;4958992;28;20191;-85
2023/10/27 00:41:30;;;;;;;4.20;1.27;;;;;;;;;;4957314;28;20240;-86
2023/10/27 00:43:58;;;;;;;5.00;0.90;;;;;;;;;;4957099;28;20206;-83
2023/10/27 00:46:26;;;;;;;3.63;0.90;;;;;;;;;;4958413;28;20195;-84
2023/10/27 00:48:55;;;;;;;5.90;1.10;;;;;;;;;;4956912;28;20766;-84
2023/10/27 00:51:26;;;;;;;3.65;1.70;;;;;;;;;;4934955;29;20261;-86
2023/10/27 00:53:56;;;;;;;2.70;1.42;;;;;;;;;;4934410;29;20645;-86
2023/10/27 00:56:24;;;;;;;7.82;1.38;;;;;;;;;;4935058;29;20318;-85
2023/10/27 00:58:58;;;;;;;1.33;1.33;;;;;;;;;;4933725;29;20319;-87
2023/10/27 01:01:27;;;;;;;3.70;1.30;;;;;;;;;;4933416;29;20210;-84
2023/10/27 01:04:01;;;;;;;9.05;1.52;;;;;;;;;;4933748;29;20205;-85
2023/10/27 01:06:31;;;;;;;2.55;1.67;;;;;;;;;;4933608;29;20212;-85
2023/10/27 01:08:58;;;;;;;3.40;1.63;;;;;;;;;;4935581;29;20703;-85
2023/10/27 01:11:27;;;;;;;4.45;1.13;;;;;;;;;;4934068;29;20295;-85
2023/10/27 01:13:59;;;;;;;5.88;1.13;;;;;;;;;;4934725;29;20194;-85
2023/10/27 01:16:29;;;;;;;3.40;1.90;;;;;;;;;;4932856;29;20273;-85
2023/10/27 01:18:59;;;;;;;1.77;1.63;;;;;;;;;;4934249;29;20218;-85
2023/10/27 01:21:26;;;;;;;2.23;2.03;;;;;;;;;;4933552;29;20643;-85
2023/10/27 01:23:58;;;;;;;2.53;2.33;;;;;;;;;;4934627;29;20203;-85
2023/10/27 01:26:29;;;;;;;4.50;1.80;;;;;;;;;;4934394;29;20225;-87
2023/10/27 01:28:57;;;;;;;2.03;1.93;;;;;;;;;;4934599;29;20211;-83
2023/10/27 01:31:26;;;;;;;3.20;1.37;;;;;;;;;;4934212;29;20205;-86
2023/10/27 01:33:57;;;;;;;1.70;1.47;;;;;;;;;;4934594;29;20200;-86
2023/10/27 01:36:28;;;;;;;2.80;1.53;;;;;;;;;;4933879;29;20249;-85
2023/10/27 01:38:58;;;;;;;4.20;1.90;;;;;;;;;;4934169;29;20200;-86
2023/10/27 01:41:30;;;;;;;2.00;1.50;;;;;;;;;;4934596;29;20210;-87
2023/10/27 01:43:58;;;;;;;1.77;1.63;;;;;;;;;;4934273;29;20301;-86
2023/10/27 01:46:27;;;;;;;4.03;1.73;;;;;;;;;;4934332;29;20210;-85
2023/10/27 01:48:57;;;;;;;2.00;1.90;;;;;;;;;;4934565;29;20633;-84
2023/10/27 01:51:26;;;;;;;1.80;1.60;;;;;;;;;;4934826;29;20215;-84
2023/10/27 01:53:55;;;;;;;3.63;1.60;;;;;;;;;;4933937;29;20209;-85
2023/10/27 01:56:24;;;;;;;4.90;1.53;;;;;;;;;;4933827;29;20588;-85
2023/10/27 01:58:53;;;;;;;2.20;2.10;;;;;;;;;;4933898;29;20300;-85
2023/10/27 02:01:22;;;;;;;2.97;1.50;;;;;;;;;;4933405;29;20219;-86
2023/10/27 02:03:53;;;;;;;5.87;1.87;;;;;;;;;;4936583;29;20197;-85
2023/10/27 02:06:28;;;;;;;5.13;2.07;;;;;;;;;;4937671;29;20196;-85
2023/10/27 02:08:56;;;;;;;2.37;2.10;;;;;;;;;;4939314;29;20207;-85
2023/10/27 02:11:26;;;;;;;1.50;1.40;;;;;;;;;;4937335;29;20210;-85
2023/10/27 02:13:57;;;;;;;1.40;1.40;;;;;;;;;;4937111;29;20242;-85
2023/10/27 02:16:27;;;;;;;4.30;1.97;;;;;;;;;;4936315;29;20591;-84
2023/10/27 02:18:54;;;;;;;2.08;1.67;;;;;;;;;;4929121;29;20343;-83
2023/10/27 02:21:25;;;;;;;4.00;1.80;;;;;;;;;;4917602;29;20228;-84
2023/10/27 02:23:56;;;;;;;3.80;1.63;;;;;;;;;;4917232;29;20201;-85
2023/10/27 02:26:24;;;;;;;1.60;1.50;;;;;;;;;;4917121;29;20691;-85
2023/10/27 02:28:55;;;;;;;3.03;1.43;;;;;;;;;;4917440;29;20214;-85
2023/10/27 02:31:23;;;;;;;2.73;1.70;;;;;;;;;;4917003;29;20237;-84
2023/10/27 02:33:53;;;;;;;2.07;1.90;;;;;;;;;;4917276;29;20279;-84
2023/10/27 02:36:20;;;;;;;2.73;1.50;;;;;;;;;;4916883;29;20328;-84
2023/10/27 02:38:49;;;;;;;3.80;1.63;;;;;;;;;;4917366;29;20742;-86
2023/10/27 02:41:17;;;;;;;1.53;1.43;;;;;;;;;;4917200;29;20665;-84
2023/10/27 02:43:45;;;;;;;4.07;2.40;;;;;;;;;;4916972;29;20232;-84
2023/10/27 02:46:15;;;;;;;3.57;1.97;;;;;;;;;;4916983;29;20212;-85
2023/10/27 02:48:44;;;;;;;3.00;1.67;;;;;;;;;;4917119;29;20214;-84
2023/10/27 02:51:12;;;;;;;2.10;1.80;;;;;;;;;;4917924;29;20215;-85
2023/10/27 02:53:41;;;;;;;2.93;2.73;;;;;;;;;;4917006;29;20205;-85
2023/10/27 02:56:10;;;;;;;2.53;2.33;;;;;;;;;;4917475;29;20200;-85
2023/10/27 02:58:40;;;;;;;4.67;1.97;;;;;;;;;;4917541;29;20220;-85
2023/10/27 03:01:08;;;;;;;1.83;1.70;;;;;;;;;;4916895;29;20302;-85
2023/10/27 03:03:38;;;;;;;3.40;1.83;;;;;;;;;;4916988;29;20231;-86
2023/10/27 03:06:08;;;;;;;3.43;1.67;;;;;;;;;;4918261;29;20213;-86
2023/10/27 03:08:38;;;;;;;1.63;1.40;;;;;;;;;;4917422;29;20589;-84
2023/10/27 03:11:08;;;;;;;1.50;1.40;;;;;;;;;;4917189;29;20202;-84
2023/10/27 03:13:37;;;;;;;2.30;1.97;;;;;;;;;;4917242;29;20647;-86
2023/10/27 03:16:07;;;;;;;1.90;1.80;;;;;;;;;;4916394;29;20232;-84
2023/10/27 03:18:38;;;;;;;2.50;1.83;;;;;;;;;;4917290;29;20217;-84
2023/10/27 03:21:06;;;;;;;3.67;1.80;;;;;;;;;;4916902;29;20215;-86
2023/10/27 03:23:33;;;;;;;6.27;2.10;;;;;;;;;;4917435;29;20658;-85
2023/10/27 03:26:03;;;;;;;4.60;1.80;;;;;;;;;;4917864;29;20197;-85
2023/10/27 03:28:33;;;;;;;2.20;1.87;;;;;;;;;;4916760;29;20308;-86
2023/10/27 03:31:00;;;;;;;2.07;1.87;;;;;;;;;;4916690;29;20209;-84
2023/10/27 03:33:28;;;;;;;7.70;1.97;;;;;;;;;;4918029;29;20210;-85
2023/10/27 03:35:58;;;;;;;3.97;2.20;;;;;;;;;;4921642;29;20972;-83
2023/10/27 03:38:26;;;;;;;2.57;1.87;;;;;;;;;;4926572;29;20244;-86
2023/10/27 03:40:56;;;;;;;2.97;2.07;;;;;;;;;;4924167;29;20274;-83
2023/10/27 03:43:24;;;;;;;1.90;1.80;;;;;;;;;;4919560;29;20212;-86
2023/10/27 03:45:55;;;;;;;3.97;1.67;;;;;;;;;;4918544;29;20200;-85
2023/10/27 03:48:26;;;;;;;4.83;2.20;;;;;;;;;;4919250;29;20213;-85
2023/10/27 03:50:57;;;;;;;1.90;1.80;;;;;;;;;;4935251;29;20192;-84
2023/10/27 03:53:28;;;;;;;2.10;1.87;;;;;;;;;;4935509;28;20212;-85
2023/10/27 03:55:56;;;;;;;1.87;1.73;;;;;;;;;;4939859;28;20202;-84
2023/10/27 03:58:25;;;;;;;3.40;1.33;;;;;;;;;;4925270;29;20338;-85
2023/10/27 04:00:52;;;;;;;9.20;1.60;;;;;;;;;;4917046;29;20279;-86
2023/10/27 04:03:24;;;;;;;6.47;2.10;;;;;;;;;;4916744;29;20265;-85
2023/10/27 04:05:52;;;;;;;4.00;1.50;;;;;;;;;;4916501;29;20645;-85
2023/10/27 04:08:23;;;;;;;1.43;1.43;;;;;;;;;;4916140;29;20209;-84
2023/10/27 04:10:56;;;;;;;2.57;1.27;;;;;;;;;;4916253;29;20201;-86
2023/10/27 04:13:25;;;;;;;1.90;1.70;;;;;;;;;;4915522;29;20205;-85
2023/10/27 04:15:57;;;;;;;2.20;1.67;;;;;;;;;;4915977;29;20222;-85
2023/10/27 04:18:24;;;;;;;1.40;1.30;;;;;;;;;;4916027;29;20236;-85
2023/10/27 04:20:53;;;;;;;3.57;2.23;;;;;;;;;;4916125;29;20205;-85
2023/10/27 04:23:20;;;;;;;4.30;2.30;;;;;;;;;;4917819;29;20288;-84
2023/10/27 04:25:48;;;;;;;1.40;1.40;;;;;;;;;;4917378;29;20670;-85
2023/10/27 04:28:22;;;;;;;1.80;1.63;;;;;;;;;;4923023;29;20750;-86
2023/10/27 04:30:53;;;;;;;5.00;1.57;;;;;;;;;;4916889;29;20672;-85
2023/10/27 04:33:24;;;;;;;4.10;1.93;;;;;;;;;;4917140;29;20229;-85
2023/10/27 04:35:53;;;;;;;2.00;1.70;;;;;;;;;;4917322;29;20238;-84
2023/10/27 04:38:25;;;;;;;6.60;1.60;;;;;;;;;;4918523;29;20232;-83
2023/10/27 04:40:58;;;;;;;4.07;1.83;;;;;;;;;;4923252;29;20214;-82
2023/10/27 04:43:33;;;;;;;5.87;1.50;;;;;;;;;;4925273;29;20579;-85
2023/10/27 04:46:01;;;;;;;4.73;1.83;;;;;;;;;;4919378;29;20194;-86
2023/10/27 04:48:32;;;;;;;4.03;2.07;;;;;;;;;;4917873;29;20215;-84
2023/10/27 04:51:04;;;;;;;4.57;2.10;;;;;;;;;;4917769;29;20255;-84
2023/10/27 04:53:35;;;;;;;3.07;1.70;;;;;;;;;;4923277;29;20291;-85
2023/10/27 04:56:03;;;;;;;2.00;1.80;;;;;;;;;;4924792;29;20214;-85
2023/10/27 04:58:35;;;;;;;2.00;1.83;;;;;;;;;;4938389;28;20231;-85
2023/10/27 05:01:05;;;;;;;1.60;1.50;;;;;;;;;;4926163;29;20220;-85
2023/10/27 05:03:35;;;;;;;3.77;2.40;;;;;;;;;;4918657;29;20233;-84
2023/10/27 05:06:11;;;;;;;3.17;2.37;;;;;;;;;;4918365;29;20218;-86
2023/10/27 05:08:43;;;;;;;6.37;2.40;;;;;;;;;;4920087;29;20220;-84
2023/10/27 05:11:14;;;;;;;4.80;1.70;;;;;;;;;;4919209;29;20199;-85
2023/10/27 05:13:52;;;;;;;2.40;2.10;;;;;;;;;;4919289;29;20194;-85
2023/10/27 05:16:24;;;;;;;3.30;2.07;;;;;;;;;;4918904;29;20562;-86
2023/10/27 05:18:54;;;;;;;4.53;1.80;;;;;;;;;;4916682;29;20237;-85
2023/10/27 05:21:28;;;;;;;3.17;1.70;;;;;;;;;;4918222;29;20273;-86
2023/10/27 05:24:01;;;;;;;6.30;2.17;;;;;;;;;;4918382;29;20197;-84
2023/10/27 05:26:29;;;;;;;2.60;1.80;;;;;;;;;;4916518;29;20216;-82
2023/10/27 05:28:59;;;;;;;3.53;1.90;;;;;;;;;;4919706;29;20218;-82
2023/10/27 05:31:28;;;;;;;3.30;3.00;;;;;;;;;;4934573;29;20228;-80
2023/10/27 05:34:01;;;;;;;3.37;2.03;;;;;;;;;;4933301;29;20202;-85
2023/10/27 05:36:30;;;;;;;6.57;2.70;;;;;;;;;;4933549;29;20250;-85
2023/10/27 05:38:59;;;;;;;7.03;2.30;;;;;;;;;;4936202;29;20236;-85
2023/10/27 05:41:28;;;;;;;4.50;2.22;;;;;;;;;;4937191;29;20215;-85
2023/10/27 05:43:58;;;;;;;3.40;1.83;;;;;;;;;;4938252;29;20263;-84
2023/10/27 05:46:29;;;;;;;2.53;2.33;;;;;;;;;;4938624;29;20219;-86
2023/10/27 05:49:00;;;;;;;4.55;1.70;;;;;;;;;;4938072;29;20209;-84
2023/10/27 05:51:29;;;;;;;9.57;2.70;;;;;;;;;;4925434;29;20309;-84
2023/10/27 05:53:58;;;;;;;5.53;2.63;;;;;;;;;;4938197;29;20208;-86
2023/10/27 05:56:27;;;;;;;7.75;2.08;;;;;;;;;;4937167;29;20221;-85
2023/10/27 05:58:56;;;;;;;2.90;1.95;;;;;;;;;;4937143;29;20240;-85
2023/10/27 06:01:25;;;;;;;1.63;1.50;;;;;;;;;;4937728;29;20212;-84
2023/10/27 06:03:57;;;;;;;3.22;2.42;;;;;;;;;;4937994;29;20209;-84
2023/10/27 06:06:25;;;;;;;16.10;3.50;;;;;;;;;;4937121;29;20195;-83
2023/10/27 06:08:53;;;;;;;5.10;2.60;;;;;;;;;;4938569;29;20209;-83
2023/10/27 06:11:22;;;;;;;2.63;2.35;;;;;;;;;;4939445;29;20222;-84
2023/10/27 06:13:50;;;;;;;2.58;2.30;;;;;;;;;;4940812;29;20689;-83
2023/10/27 06:16:20;;;;;;;5.65;2.42;;;;;;;;;;4938362;29;20205;-84
2023/10/27 06:18:51;;;;;;;2.25;2.08;;;;;;;;;;4936568;29;20242;-84
2023/10/27 06:21:20;;;;;;;5.45;2.83;;;;;;;;;;4936225;29;20271;-83
2023/10/27 06:23:50;;;;;;;7.35;2.35;;;;;;;;;;4937547;29;20211;-84
2023/10/27 06:26:25;;;;;;;3.85;2.42;;;;;;;;;;4937240;29;20650;-83
2023/10/27 06:28:55;;;;;;;6.35;2.30;;;;;;;;;;4936973;29;20208;-84
2023/10/27 06:31:26;;;;;;;4.60;2.28;;;;;;;;;;4937364;29;20275;-83
2023/10/27 06:34:03;;;;;;;6.43;2.10;;;;;;;;;;4937129;29;20677;-83
2023/10/27 06:36:34;;;;;;;1.90;1.80;;;;;;;;;;4936187;29;20258;-83
2023/10/27 06:39:06;;;;;;;4.30;2.30;;;;;;;;;;4939529;29;20234;-84
2023/10/27 06:41:37;;;;;;;2.50;2.25;;;;;;;;;;4937038;29;20211;-84
2023/10/27 06:44:10;;;;;;;5.03;3.22;;;;;;;;;;4937096;29;20204;-83
2023/10/27 06:46:41;;;;;;;3.17;1.80;;;;;;;;;;4937282;29;20611;-84
2023/10/27 06:49:12;;;;;;;3.10;1.98;;;;;;;;;;4937053;29;20664;-83
2023/10/27 06:51:40;;;;;;;7.93;2.13;;;;;;;;;;4936632;29;20655;-84
2023/10/27 06:54:13;;;;;;;3.72;1.67;;;;;;;;;;4936526;29;20754;-84
2023/10/27 06:56:41;;;;;;;2.25;2.00;;;;;;;;;;4935916;29;20591;-83
2023/10/27 06:59:09;;;;;;;10.50;2.28;;;;;;;;;;4937296;29;20237;-83
2023/10/27 07:01:39;;;;;;;4.60;2.50;;;;;;;;;;4936492;29;20234;-83
2023/10/27 07:04:08;;;;;;;5.18;2.35;;;;;;;;;;4937041;29;20194;-83
2023/10/27 07:06:37;;;;;;;6.65;2.22;;;;;;;;;;4937108;29;20227;-82
2023/10/27 07:09:07;;;;;;;6.03;2.58;;;;;;;;;;4937745;29;20206;-84
2023/10/27 07:11:38;;;;;;;5.80;2.88;;;;;;;;;;4937380;29;20305;-83
2023/10/27 07:14:06;;;;;;;9.93;2.97;;;;;;;;;;4937391;29;20202;-84
2023/10/27 07:16:35;;;;;;;2.45;2.25;;;;;;;;;;4939283;29;20346;-84
2023/10/27 07:19:07;;;;;;;6.85;2.40;;;;;;;;;;4938237;29;20305;-83
2023/10/27 07:21:38;;;;;;;7.35;2.25;;;;;;;;;;4938428;29;20254;-83
2023/10/27 07:24:11;;;;;;;5.38;2.40;;;;;;;;;;4938562;29;20199;-84
2023/10/27 07:26:41;;;;;;;4.07;2.08;;;;;;;;;;4940492;29;20213;-84
2023/10/27 07:29:15;;;;;;;3.08;2.67;;;;;;;;;;4940453;29;20203;-83
2023/10/27 07:31:43;;;;;;;2.95;2.17;;;;;;;;;;4940981;29;20199;-84
2023/10/27 07:34:14;;;;;;;4.10;1.92;;;;;;;;;;4938345;29;20235;-85
2023/10/27 07:36:43;;;;;;;2.90;2.70;;;;;;;;;;4938694;29;20634;-84
2023/10/27 07:39:14;;;;;;;2.42;2.17;;;;;;;;;;4938693;29;20233;-84
2023/10/27 07:41:48;;;;;;;6.82;2.28;;;;;;;;;;4946163;29;20657;-84
2023/10/27 07:44:18;;;;;;;7.47;2.55;;;;;;;;;;4944754;29;20195;-83
2023/10/27 07:46:46;;;;;;;4.53;2.05;;;;;;;;;;4919273;29;20227;-83
2023/10/27 07:49:20;;;;;;;7.75;2.35;;;;;;;;;;4914501;29;20235;-83
2023/10/27 07:52:15;;;;;;;3.92;2.17;;;;;;;;;;4919990;29;20235;-84
2023/10/27 07:54:46;;;;;;;2.38;2.25;;;;;;;;;;4918650;29;20235;-84
2023/10/27 07:57:16;;;;;;;12.95;2.03;;;;;;;;;;4917644;29;20227;-84
2023/10/27 07:59:45;;;;;;;4.07;2.28;;;;;;;;;;4921315;29;20675;-84
2023/10/27 08:02:12;;;;;;;9.07;2.65;;;;;;;;;;4935575;29;20227;-83
2023/10/27 08:04:42;;;;;;;7.47;2.53;;;;;;;;;;4930206;29;20238;-85
2023/10/27 08:07:11;;;;;;;2.65;2.40;;;;;;;;;;4944634;29;20239;-83
2023/10/27 08:09:43;;;;;;;5.97;2.95;;;;;;;;;;4946238;29;20262;-84
2023/10/27 08:12:12;;;;;;;3.65;2.33;;;;;;;;;;4954590;29;20227;-83
2023/10/27 08:14:41;;;;;;;7.68;2.25;;;;;;;;;;4954673;28;20303;-83
2023/10/27 08:17:12;;;;;;;4.40;2.38;;;;;;;;;;4954800;28;20240;-83
2023/10/27 08:19:47;;;;;;;6.82;2.13;;;;;;;;;;4938779;29;20268;-83
2023/10/27 08:22:16;;;;;;;8.13;2.28;;;;;;;;;;4938056;29;20242;-84
2023/10/27 08:24:47;;;;;;;4.82;2.20;;;;;;;;;;4933597;29;20235;-84
2023/10/27 08:27:18;;;;;;;4.32;2.30;;;;;;;;;;4942894;29;20238;-85
2023/10/27 08:29:46;;;;;;;6.55;2.35;;;;;;;;;;4943918;29;20219;-85
2023/10/27 08:32:16;;;;;;;4.13;2.13;;;;;;;;;;4936854;29;20293;-85
2023/10/27 08:34:50;;;;;;;4.65;1.90;;;;;;;;;;4935687;29;20235;-85
2023/10/27 08:37:21;;;;;;;8.07;2.28;;;;;;;;;;4936865;29;20228;-85
2023/10/27 08:39:53;;;;;;;4.80;1.70;;;;;;;;;;4927313;29;20239;-83
2023/10/27 08:42:22;;;;;;;5.65;2.85;;;;;;;;;;4940296;29;20238;-84
2023/10/27 08:44:56;;;;;;;6.85;2.10;;;;;;;;;;4937787;29;20314;-85
2023/10/27 08:47:24;;;;;;;2.80;2.58;;;;;;;;;;4937900;29;20219;-84
2023/10/27 08:49:56;;;;;;;5.78;2.15;;;;;;;;;;4935059;29;20585;-84
2023/10/27 08:52:23;;;;;;;3.05;1.50;;;;;;;;;;4935907;29;20226;-83
2023/10/27 08:54:51;;;;;;;3.35;1.60;;;;;;;;;;4933102;29;20800;-84
2023/10/27 08:57:21;;;;;;;5.00;0.98;;;;;;;;;;4934724;29;20262;-82
2023/10/27 08:59:53;;;;;;;2.72;0.90;;;;;;;;;;4934480;29;20235;-85
2023/10/27 09:02:28;;;;;;;2.92;1.13;;;;;;;;;;4935574;29;20231;-85
2023/10/27 09:05:06;;;;;;;6.88;1.40;;;;;;;;;;4934254;29;20294;-85
2023/10/27 09:07:38;;;;;;;1.25;1.15;;;;;;;;;;4933972;29;20223;-84
2023/10/27 09:10:10;;;;;;;1.50;1.35;;;;;;;;;;4933129;29;20716;-84
2023/10/27 09:12:38;;;;;;;2.83;1.63;;;;;;;;;;4923493;29;20250;-85
2023/10/27 09:15:12;;;;;;;1.98;1.15;;;;;;;;;;4938843;29;20222;-84
2023/10/27 09:17:53;;;;;;;1.80;1.20;;;;;;;;;;4929950;29;20689;-86
2023/10/27 09:20:24;;;;;;;0.70;0.68;;;;;;;;;;4938425;29;20246;-85
2023/10/27 09:23:01;;;;;;;0.75;0.73;;;;;;;;;;4936026;29;20282;-87
2023/10/27 09:25:35;;;;;;;3.05;0.70;;;;;;;;;;4939735;29;20779;-85
2023/10/27 09:28:07;;;;;;;1.02;0.80;;;;;;;;;;4944903;29;20317;-85
2023/10/27 09:30:43;;;;;;;2.85;1.33;;;;;;;;;;4943347;29;20286;-86
2023/10/27 09:33:16;;;;;;;0.98;0.98;;;;;;;;;;4939893;29;20262;-87
2023/10/27 09:35:53;;;;;;;1.85;0.70;;;;;;;;;;4943364;29;20243;-86
2023/10/27 09:38:23;;;;;;;3.25;1.02;;;;;;;;;;4946089;29;20696;-85
2023/10/27 09:40:56;;;;;;;2.47;1.30;;;;;;;;;;4950503;29;20230;-86
2023/10/27 09:43:27;;;;;;;1.70;1.60;;;;;;;;;;4938676;29;20642;-85
2023/10/27 09:46:34;;;;;;;0.80;0.77;;;;;;;;;;4948908;29;20222;-85
2023/10/27 09:49:44;;;;;;;0.88;0.88;;;;;;;;;;4949913;28;20239;-85
2023/10/27 09:52:20;;;;;;;1.45;1.35;;;;;;;;;;4952141;29;20246;-86
2023/10/27 09:54:51;;;;;;;0.98;0.80;;;;;;;;;;4947884;29;20199;-86
2023/10/27 09:57:28;;;;;;;0.50;0.50;;;;;;;;;;4948645;29;20306;-86
2023/10/27 10:00:21;;;;;;;6.30;1.00;;;;;;;;;;4948095;29;20242;-86
2023/10/27 10:02:50;;;;;;;0.80;0.80;;;;;;;;;;4952463;29;20220;-85
2023/10/27 10:05:23;;;;;;;1.85;0.85;;;;;;;;;;4947862;29;20206;-85
2023/10/27 10:07:56;;;;;;;3.08;1.23;;;;;;;;;;4948653;29;20220;-86
2023/10/27 10:10:39;;;;;;;5.70;1.30;;;;;;;;;;4948077;29;20223;-85
2023/10/27 10:13:12;;;;;;;0.90;0.90;;;;;;;;;;4948059;29;20672;-86
2023/10/27 10:15:47;;;;;;;1.42;1.10;;;;;;;;;;4947695;29;20188;-86
2023/10/27 10:18:35;;;;;;;1.60;1.00;;;;;;;;;;4945484;29;20687;-85
2023/10/27 10:21:06;;;;;;;0.75;0.75;;;;;;;;;;4936033;29;20211;-86
2023/10/27 10:23:48;;;;;;;0.60;0.60;;;;;;;;;;4945290;29;20187;-85
2023/10/27 10:26:23;;;;;;;6.55;0.75;;;;;;;;;;4931930;29;20306;-84
2023/10/27 10:29:16;;;;;;;2.85;0.80;;;;;;;;;;4946812;29;20290;-87
2023/10/27 10:31:45;;;;;;;0.60;0.60;;;;;;;;;;4946196;29;20204;-86
2023/10/27 10:34:17;;;;;;;1.60;0.65;;;;;;;;;;4947944;29;20207;-85
2023/10/27 10:36:53;;;;;;;3.33;0.70;;;;;;;;;;4947040;29;20242;-86
2023/10/27 10:42:53;;;;;;;2.03;0.88;;;;;;;;;;4946356;29;20207;-85
2023/10/27 10:45:31;;;;;;;1.08;0.50;;;;;;;;;;4945328;29;20200;-86
2023/10/27 10:48:07;;;;;;;1.35;1.02;;;;;;;;;;4944815;29;20696;-84
2023/10/27 10:50:51;;;;;;;0.77;0.65;;;;;;;;;;4945827;29;20202;-84
2023/10/27 10:53:24;;;;;;;1.88;0.70;;;;;;;;;;4946132;29;20255;-86
2023/10/27 10:55:56;;;;;;;1.48;0.70;;;;;;;;;;4946118;29;20199;-85
2023/10/27 10:58:24;;;;;;;3.20;0.57;;;;;;;;;;4947371;29;20636;-85
2023/10/27 11:00:55;;;;;;;0.75;0.75;;;;;;;;;;4946661;29;20235;-83
2023/10/27 11:03:27;;;;;;;1.33;0.60;;;;;;;;;;4945808;29;20224;-84
2023/10/27 11:05:59;;;;;;;1.27;0.80;;;;;;;;;;4948353;29;20203;-86
2023/10/27 11:08:28;;;;;;;1.35;0.80;;;;;;;;;;4945759;29;20210;-85
2023/10/27 11:11:04;;;;;;;1.55;0.90;;;;;;;;;;5043602;23;20259;-84
2023/10/27 11:13:35;;;;;;;1.08;0.70;;;;;;;;;;4984319;28;20686;-85
2023/10/27 11:16:14;;;;;;;0.70;0.70;;;;;;;;;;4983799;28;20206;-84
2023/10/27 11:18:57;;;;;;;3.85;1.00;;;;;;;;;;4986966;28;20198;-87
2023/10/27 11:21:32;;;;;;;0.80;0.80;;;;;;;;;;4988529;28;20202;-85
2023/10/27 11:24:30;;;;;;;0.55;0.50;;;;;;;;;;4988391;28;20205;-88
2023/10/27 11:27:01;;;;;;;2.10;0.77;;;;;;;;;;4994823;28;20199;-86
2023/10/27 11:29:30;;;;;;;1.80;0.70;;;;;;;;;;4990580;28;20229;-87
2023/10/27 11:32:21;;;;;;;2.40;0.45;;;;;;;;;;4988505;28;20199;-86
2023/10/27 11:34:58;;;;;;;0.50;0.50;;;;;;;;;;4985618;28;20230;-86
2023/10/27 11:37:26;;;;;;;0.77;0.77;;;;;;;;;;4984401;28;20190;-86
2023/10/27 11:39:54;;;;;;;1.10;1.00;;;;;;;;;;4984190;28;20670;-84
2023/10/27 11:42:29;;;;;;;1.27;1.00;;;;;;;;;;4983768;28;20225;-86
2023/10/27 11:45:03;;;;;;;2.78;0.73;;;;;;;;;;4982312;28;20749;-85
2023/10/27 11:47:47;;;;;;;5.47;0.93;;;;;;;;;;4985531;28;20205;-86
2023/10/27 11:50:23;;;;;;;4.13;1.17;;;;;;;;;;4996814;28;20226;-86
2023/10/27 11:58:45;;;;;;;0.95;0.80;;;;;;;;;;4974559;23;20273;-87
2023/10/27 12:01:17;;;;;;;2.25;1.10;;;;;;;;;;4943627;29;20234;-86
2023/10/27 12:03:49;;;;;;;1.05;0.60;;;;;;;;;;4951067;29;20215;-85
2023/10/27 12:06:19;;;;;;;0.60;0.60;;;;;;;;;;4948247;29;20209;-88
2023/10/27 12:08:50;;;;;;;1.95;0.93;;;;;;;;;;4960703;29;20267;-86
2023/10/27 12:11:21;;;;;;;2.83;0.80;;;;;;;;;;4954885;29;20206;-86
2023/10/27 12:13:50;;;;;;;4.13;0.98;;;;;;;;;;4961741;29;20226;-86
2023/10/27 12:16:19;;;;;;;0.88;0.88;;;;;;;;;;4957482;29;20271;-88
2023/10/27 12:21:51;;;;;;;2.15;0.60;;;;;;;;;;4927808;29;20240;-83
2023/10/27 12:24:20;;;;;;;0.85;0.65;;;;;;;;;;4962865;29;20213;-85
2023/10/27 12:26:55;;;;;;;2.72;0.77;;;;;;;;;;4955283;29;20207;-84
2023/10/27 12:29:26;;;;;;;3.90;0.80;;;;;;;;;;4932349;29;20287;-86
2023/10/27 12:31:56;;;;;;;1.23;0.70;;;;;;;;;;4947314;29;20203;-84
2023/10/27 12:34:27;;;;;;;2.28;0.80;;;;;;;;;;4946133;29;20210;-85
2023/10/27 12:37:09;;;;;;;0.57;0.57;;;;;;;;;;4964283;28;20199;-84
2023/10/27 12:39:40;;;;;;;0.82;0.80;;;;;;;;;;4967501;28;20253;-87
2023/10/27 12:42:10;;;;;;;0.47;0.47;;;;;;;;;;4952534;28;20203;-85
2023/10/27 12:44:39;;;;;;;0.70;0.70;;;;;;;;;;4957812;28;20227;-85
2023/10/27 12:47:08;;;;;;;0.95;0.95;;;;;;;;;;4955449;28;20167;-84
2023/10/27 12:49:41;;;;;;;0.88;0.60;;;;;;;;;;4967083;29;20262;-83
2023/10/27 12:52:11;;;;;;;6.47;0.57;;;;;;;;;;4975390;29;20218;-84
2023/10/27 12:54:45;;;;;;;1.23;0.80;;;;;;;;;;4971993;29;20203;-84
2023/10/27 12:57:14;;;;;;;1.38;0.82;;;;;;;;;;4971429;29;20239;-85
2023/10/27 12:59:42;;;;;;;1.00;1.00;;;;;;;;;;4977417;28;20234;-84
2023/10/27 13:02:13;;;;;;;4.32;1.00;;;;;;;;;;4978303;28;20218;-85
2023/10/27 13:04:54;;;;;;;2.10;0.80;;;;;;;;;;4978381;28;20181;-85
2023/10/27 13:07:28;;;;;;;1.15;1.02;;;;;;;;;;4977458;28;20222;-88
2023/10/27 13:10:12;;;;;;;2.00;0.75;;;;;;;;;;4978068;28;20198;-84
2023/10/27 13:12:46;;;;;;;3.15;0.77;;;;;;;;;;4977416;28;20187;-83
2023/10/27 13:15:14;;;;;;;1.08;0.65;;;;;;;;;;4974511;29;20230;-85
2023/10/27 13:17:47;;;;;;;4.65;0.77;;;;;;;;;;4970413;29;20199;-85
2023/10/27 13:20:17;;;;;;;1.45;0.90;;;;;;;;;;5018417;23;20556;-84
2023/10/27 13:22:52;;;;;;;1.38;0.50;;;;;;;;;;4966530;29;20210;-85
2023/10/27 13:25:23;;;;;;;1.17;0.88;;;;;;;;;;4962268;29;20285;-85
2023/10/27 13:27:53;;;;;;;1.00;0.75;;;;;;;;;;4960799;29;20624;-85
2023/10/27 13:30:23;;;;;;;1.27;0.70;;;;;;;;;;4959700;29;20201;-84
2023/10/27 13:32:51;;;;;;;1.48;0.57;;;;;;;;;;4959602;29;20279;-86
2023/10/27 13:35:23;;;;;;;1.85;0.60;;;;;;;;;;4958884;29;20270;-85
2023/10/27 13:38:06;;;;;;;0.60;0.60;;;;;;;;;;4961612;29;20569;-85
2023/10/27 13:40:42;;;;;;;1.75;0.82;;;;;;;;;;4962732;29;20274;-85
2023/10/27 13:43:10;;;;;;;0.55;0.55;;;;;;;;;;4964572;29;20277;-85
2023/10/27 13:48:33;;;;;;;1.15;0.55;;;;;;;;;;4967273;28;20290;-85
2023/10/27 13:51:14;;;;;;;1.25;0.93;;;;;;;;;;4963512;29;20203;-85
2023/10/27 13:53:45;;;;;;;0.52;0.50;;;;;;;;;;4960858;29;20668;-83
2023/10/27 13:56:28;;;;;;;6.75;1.38;;;;;;;;;;4957832;29;20191;-84
2023/10/27 13:58:58;;;;;;;3.95;0.80;;;;;;;;;;4957199;28;20286;-85
2023/10/27 14:01:27;;;;;;;1.30;0.70;;;;;;;;;;4961429;28;20238;-85
2023/10/27 14:03:58;;;;;;;1.95;0.70;;;;;;;;;;4960980;29;20286;-83
2023/10/27 14:06:49;;;;;;;5.15;0.77;;;;;;;;;;4961462;29;20235;-83
2023/10/27 14:09:17;;;;;;;0.50;0.50;;;;;;;;;;4967842;29;20198;-84
2023/10/27 14:11:46;;;;;;;0.50;0.50;;;;;;;;;;4961260;29;20722;-85
2023/10/27 14:14:15;;;;;;;2.13;0.70;;;;;;;;;;4972289;29;20199;-84
2023/10/27 14:16:44;;;;;;;0.47;0.47;;;;;;;;;;4971391;29;20267;-84
2023/10/27 14:19:14;;;;;;;5.68;0.82;;;;;;;;;;4970010;29;20310;-82
2023/10/27 14:21:47;;;;;;;0.80;0.80;;;;;;;;;;4971606;29;20242;-83
2023/10/27 14:24:19;;;;;;;3.70;0.60;;;;;;;;;;4974101;29;20203;-85
2023/10/27 14:26:49;;;;;;;0.75;0.75;;;;;;;;;;4974969;29;20210;-83
2023/10/27 14:29:17;;;;;;;0.80;0.50;;;;;;;;;;4970419;29;20206;-84
2023/10/27 14:31:45;;;;;;;0.50;0.50;;;;;;;;;;4972380;29;20209;-83
2023/10/27 14:34:13;;;;;;;0.40;0.40;;;;;;;;;;4965542;29;20222;-84
2023/10/27 14:36:43;;;;;;;0.88;0.40;;;;;;;;;;4962385;29;20203;-84
2023/10/27 14:39:15;;;;;;;0.98;0.75;;;;;;;;;;4963905;29;20214;-82
2023/10/27 14:41:45;;;;;;;0.52;0.50;;;;;;;;;;4964708;29;20690;-84
2023/10/27 14:44:15;;;;;;;2.58;0.80;;;;;;;;;;4969492;29;20213;-84
2023/10/27 14:46:44;;;;;;;0.85;0.52;;;;;;;;;;4968382;29;20209;-84
2023/10/27 14:49:13;;;;;;;0.45;0.45;;;;;;;;;;4967389;29;20202;-84
2023/10/27 14:51:43;;;;;;;2.25;1.05;;;;;;;;;;4951161;29;20199;-85
2023/10/27 14:54:13;;;;;;;14.80;2.85;;;;;;;;;;4967357;29;20258;-82
2023/10/27 14:56:41;;;;;;;0.65;0.65;;;;;;;;;;4967549;29;20203;-84
2023/10/27 14:59:19;;;;;;;3.05;1.00;;;;;;;;;;4964112;29;20282;-84
2023/10/27 15:01:50;;;;;;;0.50;0.50;;;;;;;;;;4958684;28;20234;-84
2023/10/27 15:04:17;;;;;;;2.92;1.30;;;;;;;;;;4959833;29;20238;-83
2023/10/27 15:06:50;;;;;;;0.85;0.32;;;;;;;;;;4959033;29;20664;-84
2023/10/27 15:09:23;;;;;;;3.75;0.57;;;;;;;;;;4959221;29;20195;-83
2023/10/27 15:11:52;;;;;;;1.95;0.52;;;;;;;;;;4964836;28;20203;-83
2023/10/27 15:14:23;;;;;;;0.45;0.45;;;;;;;;;;4960663;29;20213;-84
2023/10/27 15:16:52;;;;;;;0.40;0.40;;;;;;;;;;4960467;29;20203;-84
2023/10/27 15:19:22;;;;;;;1.00;0.65;;;;;;;;;;4951818;29;20708;-84
2023/10/27 15:21:53;;;;;;;2.67;0.77;;;;;;;;;;4939022;29;20238;-83
2023/10/27 15:24:26;;;;;;;1.25;0.80;;;;;;;;;;4940709;29;20290;-84